Canton, KS (67428)

11:59 AM CDT on April 25, 2017 (GMT -0500)
CPS Galva | | Change Station

Elev 1493 ft 38.27 °N, 97.52 °W | Updated 0 second ago

Mostly Cloudy
Mostly Cloudy
64.8 °F
Feels Like 64.8 °F
N
6.0
Wind Variable Wind from WNW
Gusts 9.0 mph

Today
High -- | Low -- °F
--% Chance of Precip.
Yesterday
High -- | Low -- °F
Precip. -- in
Pressure 29.37 in
Visibility 10.0 miles
Clouds Mostly Cloudy 3000 ft
Dew Point 56 °F
Humidity 72%
Rainfall 0.00 in
Snow Depth Not available.
6:39 AM 8:15 PM
Waning Crescent, 1% visible
METAR KEWK 251656Z AUTO 29007KT 10SM BKN030 22/13 A2941 RMK AO2 SLP946 T02170133
Pressure 29.37 in
Visibility 10.0 miles
Clouds Mostly Cloudy 3000 ft
Dew Point 56 °F
Humidity 72%
Rainfall 0.00 in
Snow Depth Not available.
6:39 AM 8:15 PM
Waning Crescent, 1% visible
METAR KEWK 251656Z AUTO 29007KT 10SM BKN030 22/13 A2941 RMK AO2 SLP946 T02170133

Get Severe Weather Alerts

Thanks for signing up!

Be on the lookout for a verification email in your inbox.

You'll start receiving the daily forecast at 8 AM.

×

10-Day Weather Forecast

Almanac

Astronomy

Apr. 25, 2017 Rise Set
Actual Time
Civil Twilight
Nautical Twilight
Astronomical Twilight
Moon
Length of Visible Light
Length of Day
Tomorrow will be .
, % of the Moon is Illuminated

Today's Extremes

State Highs State Lows

Community

WunderPhotos

WunderBlog® & News

Nearby

Air Quality

  Air Quality AQ Index Pollutant
Not available.

Snow Depth

Station Depth Elevation

Earthquake Activity

City Distance Mag. Time & Date
Minimum magnitude displayed is 2.5.

Coastal Water Temperatures

Place Temperature

Stations

Nearby Weather Stations

Station Location Temp. Windchill Dew Point Humidity Wind Precip. Elev Updated Type
                   

Watches & Warnings

There are currently no watches in effect.